Time;durP1;ratioP1;P1;durP2;ratioP2;P2;SDS_P1;SDS_P2;PMS_P1;PMS_P2;Temp;Humidity;BMP_temperature;BMP_pressure;BME280_temperature;BME280_humidity;BME280_pressure;Samples;Min_cycle;Max_cycle;Signal;HPM_P1;HPM_P2
2021/07/17 00:02:00;;;;;;;4.60;3.33;;;;;;;20.85;87.49;95908.41;5056122;28;20225;-84
2021/07/17 00:04:26;;;;;;;3.83;3.53;;;;;;;20.81;87.66;95902.81;5055252;28;20224;-85
2021/07/17 00:06:53;;;;;;;3.47;3.17;;;;;;;20.78;87.47;95903.31;5055378;28;20201;-85
2021/07/17 00:09:20;;;;;;;3.63;3.33;;;;;;;20.84;86.71;95912.03;5055347;28;20212;-85
2021/07/17 00:11:47;;;;;;;3.65;3.35;;;;;;;20.82;87.24;95908.84;5054678;28;20328;-86
2021/07/17 00:14:15;;;;;;;3.83;3.53;;;;;;;20.84;86.85;95912.84;5056131;28;20230;-86
2021/07/17 00:16:43;;;;;;;3.47;3.17;;;;;;;20.84;87.92;95897.13;5055418;28;20206;-85
2021/07/17 00:19:10;;;;;;;3.25;3.05;;;;;;;20.81;87.90;95902.81;5055786;28;20252;-86
2021/07/17 00:21:37;;;;;;;3.10;2.90;;;;;;;20.81;87.98;95891.56;5055684;28;20221;-86
2021/07/17 00:24:06;;;;;;;3.75;3.40;;;;;;;20.78;88.14;95895.47;5055616;28;20260;-86
2021/07/17 00:26:32;;;;;;;4.18;3.88;;;;;;;20.76;88.77;95894.09;5056369;28;20682;-86
2021/07/17 00:28:59;;;;;;;3.35;3.05;;;;;;;20.71;88.18;95892.16;5055911;28;20232;-86
2021/07/17 00:31:27;;;;;;;4.13;3.72;;;;;;;20.66;89.26;95889.44;5054611;28;20719;-86
2021/07/17 00:33:54;;;;;;;3.53;3.22;;;;;;;20.66;87.70;95898.09;5054896;28;20197;-86
2021/07/17 00:36:20;;;;;;;4.55;3.47;;;;;;;20.58;89.47;95902.91;5054670;28;20197;-85
2021/07/17 00:38:47;;;;;;;3.70;3.05;;;;;;;20.56;89.37;95897.09;5054475;28;20220;-85
2021/07/17 00:41:13;;;;;;;3.75;3.45;;;;;;;20.59;87.46;95899.28;5054315;28;20252;-84
2021/07/17 00:43:40;;;;;;;4.05;3.65;;;;;;;20.50;89.63;95895.41;5054558;28;20221;-85
2021/07/17 00:46:06;;;;;;;3.75;3.45;;;;;;;20.51;88.53;95897.78;5054750;28;20201;-86
2021/07/17 00:48:35;;;;;;;4.57;3.42;;;;;;;20.50;89.04;95890.19;5054944;28;20202;-86
2021/07/17 00:51:01;;;;;;;3.28;3.08;;;;;;;20.43;89.78;95886.88;5054751;28;20209;-85
2021/07/17 00:53:28;;;;;;;3.65;3.35;;;;;;;20.47;88.60;95880.16;5054777;28;20201;-83
2021/07/17 00:55:56;;;;;;;3.78;3.47;;;;;;;20.50;88.02;95883.13;5053870;28;20563;-85
2021/07/17 00:58:26;;;;;;;3.53;3.22;;;;;;;20.53;88.41;95885.28;5053614;28;20197;-84
2021/07/17 01:00:53;;;;;;;3.97;3.00;;;;;;;20.42;91.75;95890.53;5053500;28;20201;-84
2021/07/17 01:03:20;;;;;;;3.85;3.38;;;;;;;20.42;90.01;95893.94;5053693;28;20197;-85
2021/07/17 01:05:48;;;;;;;6.25;3.53;;;;;;;20.46;89.61;95889.03;5054040;28;20255;-84
2021/07/17 01:08:16;;;;;;;3.72;3.45;;;;;;;20.40;91.24;95893.38;5054723;28;20205;-86
2021/07/17 01:10:43;;;;;;;3.30;3.10;;;;;;;20.40;90.34;95889.97;5054019;28;20205;-84
2021/07/17 01:13:09;;;;;;;3.80;3.40;;;;;;;20.40;89.53;95890.75;5054294;28;20962;-84
2021/07/17 01:15:36;;;;;;;3.67;3.38;;;;;;;20.39;88.99;95891.00;5054255;28;20255;-87
2021/07/17 01:18:03;;;;;;;5.53;3.53;;;;;;;20.37;88.97;95891.22;5054250;28;20209;-85
2021/07/17 01:20:30;;;;;;;3.70;3.40;;;;;;;20.39;88.05;95877.94;5053506;28;20263;-86
2021/07/17 01:22:58;;;;;;;3.95;3.65;;;;;;;20.40;88.02;95880.28;5053882;28;20225;-86
2021/07/17 01:25:26;;;;;;;4.38;3.35;;;;;;;20.35;89.06;95886.19;5054467;28;20241;-86
2021/07/17 01:27:55;;;;;;;4.03;3.72;;;;;;;20.32;89.14;95885.84;5053226;28;20310;-85
2021/07/17 01:30:26;;;;;;;3.80;3.50;;;;;;;20.28;89.93;95882.09;5053992;28;20669;-88
2021/07/17 01:32:53;;;;;;;3.97;3.65;;;;;;;20.32;89.03;95886.66;5053009;28;20279;-86
2021/07/17 01:35:19;;;;;;;3.90;3.60;;;;;;;20.32;88.52;95889.28;5053628;28;20684;-86
2021/07/17 01:37:46;;;;;;;3.58;3.38;;;;;;;20.35;88.16;95886.19;5054337;28;20201;-86
2021/07/17 01:40:21;;;;;;;7.45;3.58;;;;;;;20.34;88.88;95891.66;5053833;28;20204;-85
2021/07/17 01:42:57;;;;;;;3.80;3.50;;;;;;;20.34;88.56;95897.69;5053614;28;20220;-84
2021/07/17 01:45:28;;;;;;;4.40;3.97;;;;;;;20.35;87.83;95894.03;5053739;28;20312;-85
2021/07/17 01:47:56;;;;;;;4.00;3.70;;;;;;;20.37;87.61;95898.28;5053951;28;20452;-85
2021/07/17 01:50:32;;;;;;;3.92;3.67;;;;;;;20.39;87.10;95898.84;5054011;28;20296;-85
2021/07/17 01:53:00;;;;;;;3.88;3.58;;;;;;;20.39;87.75;95901.47;5053393;28;20580;-85
2021/07/17 01:55:29;;;;;;;4.43;4.10;;;;;;;20.35;87.87;95901.88;5053362;28;20257;-85
2021/07/17 01:57:56;;;;;;;4.10;3.80;;;;;;;20.35;87.18;95899.28;5052585;28;20201;-84
2021/07/17 02:00:26;;;;;;;4.60;4.22;;;;;;;20.30;88.33;95890.53;5053379;28;20201;-84
2021/07/17 02:02:53;;;;;;;4.15;3.85;;;;;;;20.32;87.91;95894.50;5053523;28;20229;-86
2021/07/17 02:05:21;;;;;;;4.32;3.92;;;;;;;20.34;87.35;95887.22;5052255;28;20325;-84
2021/07/17 02:07:48;;;;;;;4.70;4.30;;;;;;;20.38;87.25;95886.78;5052614;28;20284;-84
2021/07/17 02:10:17;;;;;;;7.10;4.15;;;;;;;20.41;86.79;95891.53;5056380;28;20390;-84
2021/07/17 02:12:58;;;;;;;4.53;4.10;;;;;;;20.44;87.50;95888.47;5055905;28;20222;-83
2021/07/17 02:15:25;;;;;;;4.20;3.85;;;;;;;20.40;88.15;95882.91;5055979;28;20212;-84
2021/07/17 02:17:52;;;;;;;4.07;3.72;;;;;;;20.44;87.85;95881.41;5056134;28;20210;-86
2021/07/17 02:20:18;;;;;;;4.20;3.50;;;;;;;20.43;87.63;95877.22;5056309;28;20236;-86
2021/07/17 02:22:45;;;;;;;4.40;4.10;;;;;;;20.38;88.14;95878.94;5055766;28;20229;-86
2021/07/17 02:25:14;;;;;;;4.15;3.80;;;;;;;20.34;88.08;95875.97;5055874;28;20225;-86
2021/07/17 02:27:41;;;;;;;4.20;3.90;;;;;;;20.26;88.72;95877.09;5056246;28;20590;-86
2021/07/17 02:30:10;;;;;;;4.25;3.60;;;;;;;20.27;88.62;95878.69;5056339;28;20205;-85
2021/07/17 02:32:37;;;;;;;4.00;3.70;;;;;;;20.23;89.28;95869.72;5056740;28;20233;-86
2021/07/17 02:35:04;;;;;;;4.10;3.70;;;;;;;20.28;89.07;95864.59;5056866;28;20201;-85
2021/07/17 02:37:33;;;;;;;4.13;3.83;;;;;;;20.27;89.63;95870.84;5057610;28;20206;-84
2021/07/17 02:39:59;;;;;;;4.43;4.03;;;;;;;20.25;89.49;95867.66;5056669;28;20204;-85
2021/07/17 02:42:26;;;;;;;4.60;4.30;;;;;;;20.21;89.30;95866.53;5056121;28;20311;-86
2021/07/17 02:44:52;;;;;;;5.38;4.72;;;;;;;20.18;89.81;95864.41;5056547;28;20225;-86
2021/07/17 02:47:20;;;;;;;4.53;4.22;;;;;;;20.13;89.85;95869.50;5056309;28;20201;-86
2021/07/17 02:49:47;;;;;;;6.00;3.97;;;;;;;20.09;90.68;95870.19;5056125;28;20213;-86
2021/07/17 02:52:13;;;;;;;5.25;4.20;;;;;;;20.08;90.30;95865.97;5055661;28;20218;-86
2021/07/17 02:54:40;;;;;;;5.50;4.90;;;;;;;20.10;89.60;95869.97;5056586;28;20204;-84
2021/07/17 02:57:06;;;;;;;5.32;4.93;;;;;;;20.12;89.38;95878.38;5056466;28;20198;-85
2021/07/17 02:59:33;;;;;;;5.55;4.75;;;;;;;20.08;89.28;95868.59;5055910;28;20217;-84
2021/07/17 03:01:59;;;;;;;5.28;4.70;;;;;;;20.07;89.17;95867.00;5055971;28;20228;-84
2021/07/17 03:04:27;;;;;;;4.85;4.45;;;;;;;20.10;89.21;95882.25;5054633;28;20230;-84
2021/07/17 03:06:54;;;;;;;5.07;4.57;;;;;;;20.06;89.53;95875.88;5054934;28;20284;-84
2021/07/17 03:09:20;;;;;;;6.40;5.10;;;;;;;20.06;89.26;95879.28;5054376;28;20228;-85
2021/07/17 03:11:47;;;;;;;5.43;4.93;;;;;;;20.07;89.04;95878.25;5054521;28;20740;-84
2021/07/17 03:14:13;;;;;;;5.85;4.85;;;;;;;20.08;89.13;95882.47;5056101;28;20197;-86
2021/07/17 03:16:42;;;;;;;5.10;4.65;;;;;;;20.05;89.45;95879.50;5056439;28;20197;-86
2021/07/17 03:19:08;;;;;;;5.13;4.72;;;;;;;19.99;89.46;95873.41;5055153;28;20206;-85
2021/07/17 03:21:36;;;;;;;5.65;5.25;;;;;;;19.96;89.51;95879.88;5056148;28;20725;-85
2021/07/17 03:24:03;;;;;;;5.43;5.03;;;;;;;19.88;90.65;95876.78;5056142;28;20205;-85
2021/07/17 03:26:29;;;;;;;6.00;5.40;;;;;;;19.83;90.95;95872.22;5055995;28;20209;-86
2021/07/17 03:28:56;;;;;;;5.25;4.85;;;;;;;19.87;90.16;95869.97;5055919;28;20205;-84
2021/07/17 03:31:28;;;;;;;6.38;5.43;;;;;;;19.86;90.13;95868.38;5055255;28;20233;-86
2021/07/17 03:33:55;;;;;;;5.55;5.20;;;;;;;19.85;90.13;95875.41;5055306;28;20197;-86
2021/07/17 03:36:22;;;;;;;5.95;5.47;;;;;;;19.85;90.34;95882.47;5056018;28;20204;-84
2021/07/17 03:38:49;;;;;;;6.03;5.43;;;;;;;19.81;90.84;95894.41;5055988;28;20264;-85
2021/07/17 03:41:16;;;;;;;5.75;5.35;;;;;;;19.84;90.58;95896.53;5055865;28;20221;-84
2021/07/17 03:43:43;;;;;;;5.70;4.88;;;;;;;19.78;91.24;95900.09;5055241;28;20206;-84
2021/07/17 03:46:09;;;;;;;5.43;5.03;;;;;;;19.82;90.95;95904.59;5055714;28;20229;-85
2021/07/17 03:48:38;;;;;;;5.75;5.30;;;;;;;19.82;91.17;95898.63;5055617;28;20198;-85
2021/07/17 03:51:05;;;;;;;5.57;5.07;;;;;;;19.86;90.90;95902.34;5054745;28;20201;-84
2021/07/17 03:53:31;;;;;;;6.32;5.72;;;;;;;19.88;91.14;95903.72;5055167;28;20205;-84
2021/07/17 03:55:59;;;;;;;5.70;5.30;;;;;;;19.91;90.83;95905.88;5055325;28;20204;-84
2021/07/17 03:58:26;;;;;;;5.75;5.15;;;;;;;19.92;90.49;95904.06;5054775;28;20204;-86
2021/07/17 04:00:52;;;;;;;6.03;5.53;;;;;;;19.89;91.12;95904.50;5054187;28;20205;-84
2021/07/17 04:03:19;;;;;;;7.30;5.80;;;;;;;19.88;91.02;95903.72;5054303;28;20724;-84
2021/07/17 04:05:45;;;;;;;6.20;5.72;;;;;;;19.84;92.04;95909.63;5054306;28;20229;-84
2021/07/17 04:08:12;;;;;;;6.07;5.57;;;;;;;19.81;92.30;95903.06;5053573;28;20616;-85
2021/07/17 04:10:38;;;;;;;6.00;5.60;;;;;;;19.88;91.75;95911.56;5054234;28;20201;-83
2021/07/17 04:13:06;;;;;;;5.95;5.45;;;;;;;19.84;93.04;95915.63;5054763;28;20233;-86
2021/07/17 04:15:33;;;;;;;6.32;5.82;;;;;;;19.83;94.16;95918.47;5055122;28;20684;-84
2021/07/17 04:18:05;;;;;;;7.47;6.38;;;;;;;19.87;92.72;95928.25;5055339;28;20514;-85
2021/07/17 04:20:31;;;;;;;7.10;6.50;;;;;;;19.93;92.55;95934.41;5054081;28;20288;-84
2021/07/17 04:22:58;;;;;;;6.93;6.32;;;;;;;19.96;92.20;95926.13;5053655;28;20217;-85
2021/07/17 04:25:24;;;;;;;6.93;6.18;;;;;;;19.97;92.43;95935.56;5054390;28;20612;-84
2021/07/17 04:27:51;;;;;;;7.25;6.63;;;;;;;19.96;93.21;95934.75;5054022;28;20208;-87
2021/07/17 04:30:19;;;;;;;7.03;6.32;;;;;;;19.95;92.84;95933.16;5054650;28;20208;-87
2021/07/17 04:32:48;;;;;;;7.10;6.40;;;;;;;19.94;93.82;95934.19;5054778;28;20244;-86
2021/07/17 04:35:16;;;;;;;7.78;7.13;;;;;;;19.96;93.70;95936.56;5054984;28;20717;-84
2021/07/17 04:37:43;;;;;;;7.85;7.15;;;;;;;19.88;94.57;95932.47;5054617;28;20858;-84
2021/07/17 04:40:17;;;;;;;8.40;7.53;;;;;;;19.93;94.45;95937.03;5055216;28;20715;-84
2021/07/17 04:42:44;;;;;;;8.75;7.80;;;;;;;19.90;95.18;95930.44;5055011;28;20263;-85
2021/07/17 04:45:12;;;;;;;9.77;7.75;;;;;;;19.88;96.00;95929.84;5053953;28;20221;-84
2021/07/17 04:47:44;;;;;;;8.77;7.90;;;;;;;19.88;96.35;95929.06;5054102;28;20205;-84
2021/07/17 04:50:11;;;;;;;12.43;8.88;;;;;;;19.86;96.82;95924.06;5053715;28;20201;-84
2021/07/17 04:52:37;;;;;;;10.95;9.85;;;;;;;19.88;96.18;95916.78;5052769;28;20602;-84
2021/07/17 04:55:07;;;;;;;10.80;9.50;;;;;;;19.92;96.64;95919.75;5053307;28;20202;-85
2021/07/17 04:57:36;;;;;;;11.75;10.63;;;;;;;19.94;96.15;95913.28;5053347;28;20227;-84
2021/07/17 05:00:05;;;;;;;11.40;10.02;;;;;;;19.99;95.67;95905.56;5053872;28;20577;-85
2021/07/17 05:02:32;;;;;;;11.85;10.65;;;;;;;20.03;95.82;95903.25;5053664;28;20228;-84
2021/07/17 05:05:04;;;;;;;11.85;10.65;;;;;;;20.09;96.36;95914.63;5053586;28;20232;-85
2021/07/17 05:07:30;;;;;;;14.60;12.38;;;;;;;20.00;97.92;95901.13;5053958;28;20205;-84
2021/07/17 05:09:59;;;;;;;15.25;12.90;;;;;;;19.98;97.40;95911.81;5054202;28;20232;-85
2021/07/17 05:12:25;;;;;;;13.82;12.40;;;;;;;20.03;97.37;95898.03;5053791;28;20792;-83
2021/07/17 05:14:55;;;;;;;13.98;12.60;;;;;;;20.10;96.74;95898.72;5053625;28;20216;-85
2021/07/17 05:17:24;;;;;;;15.10;12.73;;;;;;;20.16;96.97;95902.25;5054473;28;20653;-85
2021/07/17 05:20:01;;;;;;;13.45;12.10;;;;;;;20.18;96.41;95900.22;5053588;28;20206;-85
2021/07/17 05:22:29;;;;;;;15.75;12.75;;;;;;;20.13;98.11;95902.69;5052875;28;20228;-87
2021/07/17 05:24:55;;;;;;;13.52;12.23;;;;;;;20.15;97.27;95893.63;5054042;28;20461;-85
2021/07/17 05:27:25;;;;;;;13.82;12.52;;;;;;;20.22;97.02;95899.50;5054423;28;20194;-85
2021/07/17 05:29:54;;;;;;;15.20;12.45;;;;;;;20.20;98.28;95903.38;5053931;28;20833;-86
2021/07/17 05:32:20;;;;;;;15.60;14.00;;;;;;;20.23;97.91;95906.31;5053364;28;20232;-84
2021/07/17 05:34:49;;;;;;;16.45;14.20;;;;;;;20.28;97.21;95909.06;5053167;28;20189;-85
2021/07/17 05:37:16;;;;;;;16.75;14.48;;;;;;;20.30;97.06;95914.06;5053247;28;20731;-86
2021/07/17 05:39:43;;;;;;;16.05;14.35;;;;;;;20.32;96.42;95904.16;5053326;28;20201;-86
2021/07/17 05:42:10;;;;;;;16.67;14.88;;;;;;;20.31;97.60;95903.38;5052926;28;20598;-86
2021/07/17 05:44:37;;;;;;;20.48;15.15;;;;;;;20.34;97.38;95910.75;5057062;28;20212;-86
2021/07/17 05:47:06;;;;;;;19.40;16.17;;;;;;;20.33;97.54;95917.00;5057321;28;20227;-86
2021/07/17 05:49:32;;;;;;;18.05;16.17;;;;;;;20.23;98.74;95918.59;5056961;28;20208;-86
2021/07/17 05:51:59;;;;;;;18.20;16.52;;;;;;;20.27;98.41;95923.16;5056407;28;20727;-85
2021/07/17 05:54:25;;;;;;;18.25;16.30;;;;;;;20.33;97.25;95916.22;5056938;28;20208;-86
2021/07/17 05:56:53;;;;;;;18.33;16.52;;;;;;;20.35;97.90;95920.19;5057189;28;20207;-87
2021/07/17 05:59:19;;;;;;;20.60;16.10;;;;;;;20.30;98.89;95914.84;5057675;28;20201;-85
2021/07/17 06:01:46;;;;;;;20.40;17.25;;;;;;;20.34;98.27;95917.81;5058028;28;20232;-85
2021/07/17 06:04:12;;;;;;;19.88;17.95;;;;;;;20.33;98.25;95917.00;5057201;28;20204;-86
2021/07/17 06:06:39;;;;;;;19.35;17.00;;;;;;;20.38;98.42;95916.38;5056758;28;20619;-84
2021/07/17 06:09:05;;;;;;;19.38;17.40;;;;;;;20.44;97.96;95919.88;5057263;28;20200;-85
2021/07/17 06:11:32;;;;;;;21.85;18.88;;;;;;;20.46;97.33;95916.00;5057133;28;20647;-86
2021/07/17 06:14:00;;;;;;;20.67;18.33;;;;;;;20.46;97.88;95918.63;5057780;28;20580;-85
2021/07/17 06:16:26;;;;;;;21.58;19.27;;;;;;;20.47;98.57;95922.03;5056880;28;20205;-84
2021/07/17 06:18:53;;;;;;;20.95;18.75;;;;;;;20.45;98.12;95918.84;5056974;28;20669;-84
2021/07/17 06:21:19;;;;;;;20.90;18.63;;;;;;;20.48;98.26;95918.38;5056063;28;20232;-84
2021/07/17 06:23:46;;;;;;;21.48;19.27;;;;;;;20.45;99.02;95921.44;5056991;28;20201;-84
2021/07/17 06:26:12;;;;;;;21.67;19.33;;;;;;;20.43;99.07;95933.97;5056985;28;20221;-85
2021/07/17 06:28:39;;;;;;;22.42;19.95;;;;;;;20.43;99.37;95933.97;5056226;28;20347;-84
2021/07/17 06:31:07;;;;;;;22.35;19.35;;;;;;;20.38;99.73;95933.88;5056463;28;20206;-86
2021/07/17 06:33:34;;;;;;;21.90;19.75;;;;;;;20.43;99.30;95933.97;5056836;28;20197;-85
2021/07/17 06:36:01;;;;;;;23.60;21.08;;;;;;;20.46;99.42;95936.13;5056535;28;20236;-85
2021/07/17 06:38:27;;;;;;;25.58;20.50;;;;;;;20.38;99.72;95929.44;5056073;28;20728;-84
2021/07/17 06:40:54;;;;;;;26.35;20.48;;;;;;;20.42;99.04;95943.63;5056345;28;20212;-85
2021/07/17 06:43:20;;;;;;;25.65;20.35;;;;;;;20.41;99.45;95944.66;5056730;28;20209;-86
2021/07/17 06:45:47;;;;;;;22.40;20.08;;;;;;;20.33;99.29;95937.13;5056357;28;20482;-86
2021/07/17 06:48:15;;;;;;;24.13;19.98;;;;;;;20.43;98.92;95941.81;5056907;28;20255;-85
2021/07/17 06:50:43;;;;;;;22.95;20.55;;;;;;;20.41;99.66;95949.88;5057396;28;20281;-84
2021/07/17 06:53:09;;;;;;;24.30;21.13;;;;;;;20.43;99.09;95955.69;5057610;28;20252;-84
2021/07/17 06:55:37;;;;;;;24.15;21.52;;;;;;;20.42;98.99;95950.69;5056626;28;20197;-85
2021/07/17 06:58:04;;;;;;;23.00;20.52;;;;;;;20.37;99.07;95948.78;5056843;28;20213;-84
2021/07/17 07:00:33;;;;;;;26.00;20.80;;;;;;;20.34;99.54;95954.44;5056178;28;20205;-84
2021/07/17 07:03:00;;;;;;;21.90;19.58;;;;;;;20.26;99.61;95955.56;5056240;28;20279;-84
2021/07/17 07:05:30;;;;;;;25.50;19.90;;;;;;;20.30;98.35;95955.91;5057009;28;20308;-85
2021/07/17 07:08:00;;;;;;;23.25;19.63;;;;;;;20.28;99.54;95965.78;5056606;28;20205;-85
2021/07/17 07:10:26;;;;;;;22.35;19.85;;;;;;;20.31;99.62;95965.34;5055769;28;20691;-84
2021/07/17 07:12:52;;;;;;;23.25;19.70;;;;;;;20.35;98.68;95969.91;5055569;28;20213;-85
2021/07/17 07:15:19;;;;;;;22.38;20.08;;;;;;;20.33;99.05;95965.91;5056122;28;20208;-84
2021/07/17 07:17:45;;;;;;;20.67;18.48;;;;;;;20.35;99.41;95975.13;5056016;28;20217;-85
2021/07/17 07:20:15;;;;;;;22.95;20.55;;;;;;;20.33;99.32;95973.75;5056548;28;20198;-84
2021/07/17 07:22:43;;;;;;;24.38;20.38;;;;;;;20.32;99.29;95978.19;5055328;28;20222;-85
2021/07/17 07:25:11;;;;;;;22.35;19.95;;;;;;;20.39;98.61;95978.13;5056454;28;20233;-87
2021/07/17 07:27:38;;;;;;;22.30;19.02;;;;;;;20.39;98.89;95975.50;5055805;28;20205;-86
2021/07/17 07:30:06;;;;;;;25.90;20.70;;;;;;;20.40;97.92;95968.44;5055423;28;20198;-86
2021/07/17 07:32:33;;;;;;;21.75;19.65;;;;;;;20.43;97.71;95973.19;5055430;28;20604;-86
2021/07/17 07:34:59;;;;;;;21.00;18.90;;;;;;;20.45;97.75;95965.91;5055814;28;20664;-86
2021/07/17 07:37:27;;;;;;;20.70;18.27;;;;;;;20.34;99.41;95960.44;5055682;28;20621;-86
2021/07/17 07:39:55;;;;;;;19.90;17.77;;;;;;;20.34;98.27;95959.66;5056138;28;20205;-86
2021/07/17 07:42:42;;;;;;;20.80;17.45;;;;;;;20.39;98.13;95966.84;5055943;28;20299;-86
2021/07/17 07:45:09;;;;;;;19.55;17.55;;;;;;;20.43;97.72;95973.19;5056676;28;20209;-86
2021/07/17 07:47:36;;;;;;;19.27;17.05;;;;;;;20.46;97.31;95976.16;5056611;28;20228;-86
2021/07/17 07:50:03;;;;;;;19.00;17.00;;;;;;;20.44;97.21;95975.59;5056704;28;20206;-86
2021/07/17 07:52:29;;;;;;;19.95;17.88;;;;;;;20.43;98.06;95968.75;5057447;28;20213;-86
2021/07/17 07:55:04;;;;;;;19.67;17.48;;;;;;;20.46;97.02;95977.97;5056585;28;20207;-86
2021/07/17 07:57:34;;;;;;;18.42;16.48;;;;;;;20.53;96.46;95973.44;5056191;28;20236;-86
2021/07/17 08:00:01;;;;;;;19.25;17.33;;;;;;;20.56;96.19;95978.22;5056832;28;20942;-86
2021/07/17 08:02:30;;;;;;;18.60;16.73;;;;;;;20.63;95.76;95966.59;5055417;28;20213;-86
2021/07/17 08:04:59;;;;;;;18.80;16.80;;;;;;;20.70;95.64;95969.09;5055314;28;20288;-86
2021/07/17 08:07:35;;;;;;;18.95;16.83;;;;;;;20.66;95.81;95968.75;5055131;28;20227;-86
2021/07/17 08:10:10;;;;;;;21.40;17.75;;;;;;;20.69;95.62;95968.28;5056029;28;20205;-83
2021/07/17 08:12:36;;;;;;;18.60;16.85;;;;;;;20.75;95.21;95965.78;5056214;28;20754;-84
2021/07/17 08:15:14;;;;;;;19.23;16.83;;;;;;;20.68;96.51;95961.47;5056743;28;20209;-87
2021/07/17 08:17:40;;;;;;;19.83;17.75;;;;;;;20.75;96.31;95969.19;5056711;28;20635;-85
2021/07/17 08:20:10;;;;;;;18.42;16.63;;;;;;;20.76;95.51;95973.41;5056346;28;20201;-86
2021/07/17 08:22:44;;;;;;;18.75;16.55;;;;;;;20.83;95.20;95976.69;5056308;28;20222;-84
2021/07/17 08:28:06;;;;;;;19.30;17.23;;;;;;;20.84;95.30;95980.88;5045767;28;20204;-85
2021/07/17 08:30:38;;;;;;;19.23;17.25;;;;;;;20.90;94.38;95985.22;5056426;28;20198;-86
2021/07/17 08:33:09;;;;;;;19.65;17.60;;;;;;;20.94;94.44;95982.94;5055686;28;20324;-84
2021/07/17 08:35:36;;;;;;;22.30;17.65;;;;;;;20.84;95.61;95980.09;5057305;28;20197;-84
2021/07/17 08:38:03;;;;;;;21.38;18.13;;;;;;;20.71;96.85;95981.16;5057516;28;20232;-85
2021/07/17 08:40:34;;;;;;;19.63;17.60;;;;;;;20.71;96.86;95982.97;5055926;28;20198;-84
2021/07/17 08:43:00;;;;;;;19.48;17.45;;;;;;;20.67;97.66;95970.34;5055200;28;20221;-85
2021/07/17 08:45:27;;;;;;;19.77;17.73;;;;;;;20.77;96.77;95977.63;5055602;28;20212;-86
2021/07/17 08:47:55;;;;;;;19.98;17.88;;;;;;;20.72;96.99;95958.38;5055412;28;20331;-85
2021/07/17 08:50:24;;;;;;;20.45;17.48;;;;;;;20.69;96.29;95955.22;5055816;28;20209;-85
2021/07/17 08:52:52;;;;;;;19.73;17.63;;;;;;;20.72;96.76;95955.78;5054966;28;20251;-85
2021/07/17 08:55:23;;;;;;;19.40;17.33;;;;;;;20.76;96.31;95962.94;5055521;28;20248;-84
2021/07/17 08:57:51;;;;;;;19.13;17.23;;;;;;;20.79;95.82;95965.06;5054683;28;20194;-87
2021/07/17 09:00:20;;;;;;;19.17;17.08;;;;;;;20.83;96.62;95963.59;5055136;28;20201;-84
2021/07/17 09:02:49;;;;;;;18.80;16.85;;;;;;;20.77;96.22;95964.53;5055446;28;20221;-84
2021/07/17 09:05:17;;;;;;;19.17;17.10;;;;;;;20.85;95.78;95968.59;5054875;28;20205;-84
2021/07/17 09:07:45;;;;;;;17.27;15.48;;;;;;;20.83;97.14;95968.03;5055064;28;20227;-84
2021/07/17 09:10:28;;;;;;;17.83;16.13;;;;;;;20.89;96.38;95978.38;5055201;28;20301;-84
2021/07/17 09:13:11;;;;;;;17.50;15.70;;;;;;;20.89;95.93;95972.34;5054563;28;20217;-85
2021/07/17 09:15:40;;;;;;;17.25;15.45;;;;;;;20.97;95.71;95964.91;5055108;28;20232;-85
2021/07/17 09:18:08;;;;;;;17.58;15.88;;;;;;;21.01;96.19;95968.66;5054341;28;20197;-84
2021/07/17 09:20:35;;;;;;;17.88;15.98;;;;;;;21.10;95.55;95963.06;5054508;28;20292;-84
2021/07/17 09:23:04;;;;;;;17.10;15.25;;;;;;;21.12;94.27;95969.66;5054613;28;20227;-84
2021/07/17 09:25:39;;;;;;;18.55;15.35;;;;;;;21.17;93.14;95961.88;5054563;28;20668;-84
2021/07/17 09:28:22;;;;;;;17.75;14.95;;;;;;;21.31;92.16;95965.06;5054870;28;20236;-84
2021/07/17 09:30:51;;;;;;;16.08;14.52;;;;;;;21.35;91.88;95959.16;5053859;28;20204;-83
2021/07/17 09:33:20;;;;;;;15.80;14.27;;;;;;;21.27;92.99;95958.72;5052940;28;20269;-85
2021/07/17 09:35:49;;;;;;;16.38;14.75;;;;;;;21.23;92.73;95957.59;5054774;28;20228;-83
2021/07/17 09:38:17;;;;;;;18.38;14.10;;;;;;;21.23;93.53;95957.59;5055352;28;20209;-86
2021/07/17 09:40:46;;;;;;;15.68;14.18;;;;;;;21.26;93.20;95963.16;5054500;28;20197;-84
2021/07/17 09:43:25;;;;;;;16.08;14.20;;;;;;;21.28;94.20;95962.91;5054553;28;20767;-85
2021/07/17 09:45:53;;;;;;;14.68;13.18;;;;;;;21.35;93.58;95958.34;5055244;28;20576;-84
2021/07/17 09:48:29;;;;;;;15.00;13.48;;;;;;;21.40;92.53;95952.38;5055693;28;20221;-83
2021/07/17 09:51:00;;;;;;;14.63;13.07;;;;;;;21.47;92.34;95953.84;5054056;28;20223;-84
2021/07/17 09:53:52;;;;;;;15.85;14.27;;;;;;;21.49;92.77;95951.78;5055081;28;20194;-85
2021/07/17 09:56:28;;;;;;;15.82;13.32;;;;;;;21.48;92.18;95950.19;5056067;28;20289;-83
2021/07/17 09:59:02;;;;;;;17.02;13.52;;;;;;;21.49;93.03;95954.41;5054656;28;20207;-86
2021/07/17 10:01:36;;;;;;;15.18;12.80;;;;;;;21.54;91.34;95945.84;5055816;28;20217;-83
2021/07/17 10:04:10;;;;;;;15.40;13.88;;;;;;;21.54;91.59;95946.63;5057257;28;20201;-86
2021/07/17 10:06:41;;;;;;;15.60;14.07;;;;;;;21.58;91.30;95942.50;5056985;28;20222;-86
2021/07/17 10:09:26;;;;;;;14.93;13.23;;;;;;;21.62;92.34;95948.06;5056141;28;20216;-84
2021/07/17 10:12:00;;;;;;;15.00;13.45;;;;;;;21.58;90.38;95945.09;5055592;28;20229;-84
2021/07/17 10:14:33;;;;;;;14.48;12.98;;;;;;;21.54;90.39;95941.41;5056002;28;20228;-85
2021/07/17 10:17:06;;;;;;;15.23;13.80;;;;;;;21.46;90.87;95933.09;5056492;28;20726;-85
2021/07/17 10:19:33;;;;;;;15.50;13.90;;;;;;;21.36;92.19;95937.13;5056261;28;20288;-84
2021/07/17 10:22:03;;;;;;;16.33;14.63;;;;;;;21.24;92.80;95944.25;5056144;28;20470;-84
2021/07/17 10:24:31;;;;;;;18.08;14.95;;;;;;;21.20;95.21;95942.31;5055176;28;20204;-86
2021/07/17 10:26:58;;;;;;;17.13;15.05;;;;;;;21.14;98.84;95948.50;5054905;28;20222;-85
2021/07/17 10:29:26;;;;;;;16.70;14.98;;;;;;;21.12;98.59;95947.94;5056306;28;20197;-85
2021/07/17 10:31:55;;;;;;;18.15;16.13;;;;;;;21.05;100.00;95948.06;5058335;28;20245;-86
2021/07/17 10:34:23;;;;;;;18.25;15.82;;;;;;;21.04;100.00;95943.84;5058975;28;20208;-84
2021/07/17 10:36:57;;;;;;;18.25;16.30;;;;;;;20.97;100.00;95937.97;5058563;28;20575;-85
2021/07/17 10:39:27;;;;;;;19.30;16.38;;;;;;;20.99;100.00;95934.06;5059078;28;20202;-84
2021/07/17 10:41:54;;;;;;;18.80;16.83;;;;;;;20.94;100.00;95941.03;5058701;28;20221;-85
2021/07/17 10:44:40;;;;;;;19.83;16.63;;;;;;;21.04;100.00;95936.00;5058787;28;20224;-86
2021/07/17 10:47:07;;;;;;;19.30;17.10;;;;;;;21.04;100.00;95928.13;5058025;28;20225;-85
2021/07/17 10:52:37;;;;;;;18.55;16.40;;;;;;;21.16;100.00;95923.66;5056542;28;20271;-85
2021/07/17 10:55:26;;;;;;;19.73;17.75;;;;;;;21.08;100.00;95934.50;5059733;28;20216;-85
2021/07/17 10:57:59;;;;;;;23.50;17.30;;;;;;;21.00;100.00;95927.81;5058932;28;20240;-86
2021/07/17 11:00:45;;;;;;;18.25;16.45;;;;;;;21.02;100.00;95936.22;5058497;28;20223;-85
2021/07/17 11:03:16;;;;;;;20.33;16.35;;;;;;;21.02;100.00;95927.56;5057988;28;20650;-84
2021/07/17 11:05:44;;;;;;;18.70;16.85;;;;;;;21.00;100.00;95927.00;5058711;28;20205;-86
2021/07/17 11:08:32;;;;;;;20.60;18.40;;;;;;;20.95;100.00;95929.53;5058145;28;20221;-85
2021/07/17 11:10:59;;;;;;;19.92;16.80;;;;;;;20.90;100.00;95921.59;5059021;28;20267;-86
2021/07/17 11:13:50;;;;;;;19.35;17.38;;;;;;;20.85;100.00;95927.50;5059036;28;20669;-84
2021/07/17 11:16:49;;;;;;;19.35;16.98;;;;;;;20.84;100.00;95923.31;5055444;28;20206;-86
2021/07/17 11:19:16;;;;;;;21.10;17.33;;;;;;;20.81;100.00;95925.59;5058418;28;20205;-84
2021/07/17 11:21:45;;;;;;;18.55;16.65;;;;;;;20.73;100.00;95925.97;5057857;28;20217;-85
2021/07/17 11:24:13;;;;;;;19.27;17.27;;;;;;;20.73;100.00;95924.16;5057440;28;20580;-84
2021/07/17 11:26:40;;;;;;;23.10;17.52;;;;;;;20.75;100.00;95924.72;5056725;28;20259;-84
2021/07/17 11:29:10;;;;;;;22.20;17.48;;;;;;;20.76;100.00;95922.88;5057408;28;20197;-86
2021/07/17 11:31:52;;;;;;;23.42;17.35;;;;;;;20.84;100.00;95928.53;5057756;28;20214;-84
2021/07/17 11:34:40;;;;;;;23.02;16.25;;;;;;;20.96;100.00;95925.91;5057559;28;20205;-84
2021/07/17 11:37:21;;;;;;;17.17;15.48;;;;;;;21.02;100.00;95925.75;5057211;28;20193;-86
2021/07/17 11:39:51;;;;;;;22.75;17.30;;;;;;;20.99;100.00;95925.41;5056521;28;20288;-84